createdAt,value
2022-11-05T00:00:09.685Z,99.90
2022-11-05T00:02:55.138Z,99.90
2022-11-05T00:05:40.561Z,99.90
2022-11-05T00:08:26.091Z,99.90
2022-11-05T00:10:52.714Z,99.90
2022-11-05T00:13:37.878Z,99.90
2022-11-05T00:16:23.210Z,99.90
2022-11-05T00:19:06.335Z,99.90
2022-11-05T00:21:56.858Z,99.90
2022-11-05T00:24:42.746Z,99.90
2022-11-05T00:27:10.106Z,99.90
2022-11-05T00:29:37.050Z,99.90
2022-11-05T00:32:03.935Z,99.90
2022-11-05T00:34:30.548Z,99.90
2022-11-05T00:36:57.175Z,99.90
2022-11-05T00:39:23.783Z,99.90
2022-11-05T00:42:10.611Z,99.90
2022-11-05T00:44:56.182Z,99.90
2022-11-05T00:47:41.675Z,99.90
2022-11-05T00:50:10.495Z,99.90
2022-11-05T00:52:55.851Z,99.90
2022-11-05T00:55:24.217Z,99.90
2022-11-05T00:57:51.119Z,99.90
2022-11-05T01:00:18.232Z,99.90
2022-11-05T01:02:45.175Z,99.90
2022-11-05T01:05:12.552Z,99.90
2022-11-05T01:07:39.229Z,99.90
2022-11-05T01:10:06.371Z,99.90
2022-11-05T01:12:33.213Z,99.90
2022-11-05T01:15:01.108Z,99.90
2022-11-05T01:17:27.789Z,99.90
2022-11-05T01:19:54.469Z,99.90
2022-11-05T01:22:21.776Z,99.90
2022-11-05T01:24:48.397Z,99.90
2022-11-05T01:27:14.994Z,99.90
2022-11-05T01:29:42.207Z,99.90
2022-11-05T01:32:08.823Z,99.90
2022-11-05T01:34:35.478Z,99.90
2022-11-05T01:37:02.143Z,99.90
2022-11-05T01:39:28.747Z,99.90
2022-11-05T01:41:55.363Z,99.90
2022-11-05T01:44:55.227Z,99.90
2022-11-05T01:47:52.058Z,99.90
2022-11-05T01:50:21.714Z,99.90
2022-11-05T01:52:52.024Z,99.90
2022-11-05T01:55:23.658Z,99.90
2022-11-05T01:57:51.372Z,99.90
2022-11-05T02:00:18.339Z,99.90
2022-11-05T02:02:45.625Z,99.90
2022-11-05T02:05:14.080Z,99.90
2022-11-05T02:07:43.290Z,99.90
2022-11-05T02:10:17.898Z,99.90
2022-11-05T02:12:48.281Z,99.90
2022-11-05T02:15:19.213Z,99.90
2022-11-05T02:18:08.398Z,99.90
2022-11-05T02:21:13.335Z,99.90
2022-11-05T02:24:01.484Z,99.90
2022-11-05T02:26:40.232Z,99.90
2022-11-05T02:29:39.170Z,99.90
2022-11-05T02:32:19.820Z,99.90
2022-11-05T02:35:27.324Z,99.90
2022-11-05T02:38:01.347Z,99.90
2022-11-05T02:40:40.853Z,99.90
2022-11-05T02:43:16.449Z,99.90
2022-11-05T02:46:03.368Z,99.90
2022-11-05T02:48:52.187Z,99.90
2022-11-05T02:51:35.061Z,99.90
2022-11-05T02:54:25.966Z,99.90
2022-11-05T02:56:55.413Z,99.90
2022-11-05T02:59:22.084Z,99.90
2022-11-05T03:01:49.220Z,99.90
2022-11-05T03:04:19.170Z,99.90
2022-11-05T03:07:30.147Z,99.90
2022-11-05T03:09:56.745Z,99.90
2022-11-05T03:12:50.146Z,99.90
2022-11-05T03:15:27.216Z,99.90
2022-11-05T03:18:20.382Z,99.90
2022-11-05T03:21:01.935Z,99.90
2022-11-05T03:24:07.942Z,99.90
2022-11-05T03:26:47.587Z,99.90
2022-11-05T03:29:30.101Z,99.90
2022-11-05T03:31:59.618Z,99.90
2022-11-05T03:34:32.262Z,99.90
2022-11-05T03:37:01.518Z,99.90
2022-11-05T03:39:40.614Z,99.90
2022-11-05T03:42:11.490Z,99.90
2022-11-05T03:44:42.352Z,99.90
2022-11-05T03:47:15.532Z,99.90
2022-11-05T03:49:59.311Z,99.90
2022-11-05T03:52:29.828Z,99.90
2022-11-05T03:54:56.721Z,99.90
2022-11-05T03:57:29.303Z,99.90
2022-11-05T03:59:56.109Z,99.90
2022-11-05T04:02:25.521Z,99.90
2022-11-05T04:04:53.974Z,99.90
2022-11-05T04:07:39.153Z,99.90
2022-11-05T04:10:24.387Z,99.90
2022-11-05T04:13:10.108Z,99.90
2022-11-05T04:15:57.334Z,99.90
2022-11-05T04:18:23.932Z,99.90
2022-11-05T04:21:09.125Z,99.90
2022-11-05T04:23:54.679Z,99.90
2022-11-05T04:26:23.197Z,99.90
2022-11-05T04:29:11.723Z,99.90
2022-11-05T04:31:38.613Z,99.90
2022-11-05T04:34:05.752Z,99.90
2022-11-05T04:36:32.365Z,99.90
2022-11-05T04:38:58.978Z,99.90
2022-11-05T04:41:25.661Z,99.90
2022-11-05T04:43:52.397Z,99.90
2022-11-05T04:46:19.041Z,99.90
2022-11-05T04:48:45.678Z,99.90
2022-11-05T04:51:12.333Z,99.90
2022-11-05T04:53:38.922Z,99.90
2022-11-05T04:56:14.760Z,99.90
2022-11-05T04:58:42.186Z,99.90
2022-11-05T05:01:16.625Z,99.90
2022-11-05T05:03:43.707Z,99.90
2022-11-05T05:06:10.758Z,99.90
2022-11-05T05:08:37.406Z,99.90
2022-11-05T05:11:06.222Z,99.90
2022-11-05T05:13:32.868Z,99.90
2022-11-05T05:15:59.621Z,99.90
2022-11-05T05:18:26.772Z,99.90
2022-11-05T05:21:18.040Z,99.90
2022-11-05T05:23:46.331Z,99.90
2022-11-05T05:26:12.947Z,99.90
2022-11-05T05:28:39.594Z,99.90
2022-11-05T05:31:06.446Z,99.90
2022-11-05T05:33:33.135Z,99.90
2022-11-05T05:36:00.253Z,99.90
2022-11-05T05:38:27.479Z,99.90
2022-11-05T05:40:58.331Z,99.90
2022-11-05T05:43:26.058Z,99.90
2022-11-05T05:45:52.750Z,99.90
2022-11-05T05:48:19.342Z,99.90
2022-11-05T05:50:45.953Z,99.90
2022-11-05T05:53:12.832Z,99.90
2022-11-05T05:55:39.594Z,99.90
2022-11-05T05:58:06.199Z,99.90
2022-11-05T06:00:32.791Z,99.90
2022-11-05T06:02:59.424Z,99.90
2022-11-05T06:05:26.093Z,99.90
2022-11-05T06:07:57.072Z,99.90
2022-11-05T06:10:24.664Z,99.90
2022-11-05T06:12:51.567Z,99.90
2022-11-05T06:15:18.214Z,99.90
2022-11-05T06:17:45.062Z,99.90
2022-11-05T06:20:12.912Z,99.90
2022-11-05T06:22:40.146Z,99.90
2022-11-05T06:25:08.010Z,99.90
2022-11-05T06:27:36.642Z,99.90
2022-11-05T06:30:05.013Z,99.90
2022-11-05T06:32:31.709Z,99.90
2022-11-05T06:34:58.404Z,99.90
2022-11-05T06:37:25.313Z,99.90
2022-11-05T06:39:51.958Z,99.90
2022-11-05T06:42:19.422Z,99.90
2022-11-05T06:44:46.468Z,99.90
2022-11-05T06:47:13.083Z,99.90
2022-11-05T06:49:39.701Z,99.90
2022-11-05T06:52:06.313Z,99.90
2022-11-05T06:54:32.906Z,99.90
2022-11-05T06:56:59.529Z,99.90
2022-11-05T06:59:26.127Z,99.90
2022-11-05T07:01:52.736Z,99.90
2022-11-05T07:04:19.321Z,99.90
2022-11-05T07:06:45.916Z,99.90
2022-11-05T07:09:12.599Z,99.90
2022-11-05T07:11:39.269Z,99.90
2022-11-05T07:14:05.874Z,99.90
2022-11-05T07:16:32.584Z,99.90
2022-11-05T07:18:59.271Z,99.90
2022-11-05T07:21:25.895Z,99.90
2022-11-05T07:23:52.481Z,99.90
2022-11-05T07:26:19.131Z,99.90
2022-11-05T07:28:45.747Z,99.90
2022-11-05T07:31:12.369Z,99.90
2022-11-05T07:33:39.119Z,99.90
2022-11-05T07:36:06.098Z,99.90
2022-11-05T07:38:32.773Z,99.90
2022-11-05T07:41:00.285Z,99.90
2022-11-05T07:43:26.884Z,99.90
2022-11-05T07:45:53.568Z,99.90
2022-11-05T07:48:20.171Z,99.90
2022-11-05T07:50:46.789Z,99.90
2022-11-05T07:53:15.002Z,99.90
2022-11-05T07:55:42.562Z,99.90
2022-11-05T07:58:10.324Z,99.90
2022-11-05T08:00:37.044Z,99.90
2022-11-05T08:03:08.895Z,99.90
2022-11-05T08:05:43.215Z,99.90
2022-11-05T08:08:10.716Z,99.90
2022-11-05T08:10:38.241Z,99.90
2022-11-05T08:13:06.171Z,99.90
2022-11-05T08:15:34.177Z,99.90
2022-11-05T08:18:03.118Z,99.90
2022-11-05T08:20:30.180Z,99.90
2022-11-05T08:22:57.467Z,99.90
2022-11-05T08:25:24.467Z,99.90
2022-11-05T08:27:59.544Z,99.90
2022-11-05T08:30:26.210Z,99.90
2022-11-05T08:32:58.155Z,99.90
2022-11-05T08:35:25.323Z,99.90
2022-11-05T08:37:57.393Z,99.90
2022-11-05T08:40:24.085Z,99.90
2022-11-05T08:42:50.706Z,99.90
2022-11-05T08:45:17.345Z,99.90
2022-11-05T08:47:43.989Z,99.90
2022-11-05T08:50:10.665Z,99.90
2022-11-05T08:52:40.217Z,99.90
2022-11-05T08:55:07.260Z,99.90
2022-11-05T08:57:33.953Z,99.90
2022-11-05T09:00:00.553Z,99.90
2022-11-05T09:02:27.211Z,99.90
2022-11-05T09:04:53.886Z,99.90
2022-11-05T09:07:22.764Z,99.90
2022-11-05T09:09:49.495Z,99.90
2022-11-05T09:12:16.218Z,99.90
2022-11-05T09:14:42.898Z,99.90
2022-11-05T09:17:20.967Z,99.90
2022-11-05T09:19:47.990Z,99.90
2022-11-05T09:22:15.003Z,99.90
2022-11-05T09:24:43.478Z,99.90
2022-11-05T09:27:11.849Z,99.90
2022-11-05T09:29:39.082Z,99.90
2022-11-05T09:32:06.478Z,99.90
2022-11-05T09:34:33.170Z,99.90
2022-11-05T09:37:00.013Z,99.90
2022-11-05T09:39:27.201Z,99.90
2022-11-05T09:42:04.549Z,99.90
2022-11-05T09:44:43.165Z,99.90
2022-11-05T09:47:20.257Z,99.90
2022-11-05T09:49:51.632Z,99.90
2022-11-05T09:52:24.108Z,99.90
2022-11-05T09:54:51.553Z,99.90
2022-11-05T09:57:43.731Z,99.90
2022-11-05T10:00:16.485Z,99.90
2022-11-05T10:02:48.010Z,99.90
2022-11-05T10:05:14.893Z,99.90
2022-11-05T10:07:54.570Z,99.90
2022-11-05T10:10:45.299Z,99.90
2022-11-05T10:13:25.212Z,99.90
2022-11-05T10:16:15.455Z,99.90
2022-11-05T10:18:47.756Z,99.90
2022-11-05T10:21:32.253Z,99.90
2022-11-05T10:23:59.450Z,99.90
2022-11-05T10:26:27.879Z,99.90
2022-11-05T10:28:55.498Z,99.90
2022-11-05T10:31:23.320Z,99.90
2022-11-05T10:34:06.418Z,99.90
2022-11-05T10:36:37.781Z,99.90
2022-11-05T10:39:14.639Z,99.90
2022-11-05T10:41:47.284Z,99.90
2022-11-05T10:44:18.659Z,99.90
2022-11-05T10:47:13.713Z,99.90
2022-11-05T10:50:00.295Z,99.90
2022-11-05T10:52:39.788Z,99.90
2022-11-05T10:55:34.282Z,99.90
2022-11-05T10:58:15.939Z,99.90
2022-11-05T11:00:44.580Z,99.90
2022-11-05T11:03:31.217Z,99.90
2022-11-05T11:06:26.087Z,99.90
2022-11-05T11:08:55.666Z,99.90
2022-11-05T11:12:00.357Z,99.90
2022-11-05T11:14:27.348Z,99.90
2022-11-05T11:16:57.617Z,99.90
2022-11-05T11:19:30.320Z,99.90
2022-11-05T11:22:05.869Z,99.90
2022-11-05T11:24:40.722Z,99.90
2022-11-05T11:27:28.941Z,99.90
2022-11-05T11:29:59.025Z,99.90
2022-11-05T11:32:35.201Z,99.90
2022-11-05T11:35:03.091Z,99.90
2022-11-05T11:37:34.433Z,99.90
2022-11-05T11:40:12.986Z,99.90
2022-11-05T11:42:41.724Z,99.90
2022-11-05T11:45:18.781Z,99.90
2022-11-05T11:47:48.689Z,99.90
2022-11-05T11:50:40.979Z,99.90
2022-11-05T11:53:33.146Z,99.70
2022-11-05T11:56:15.951Z,99.90
2022-11-05T11:58:45.760Z,98.10
2022-11-05T12:01:34.690Z,98.70
2022-11-05T12:04:38.883Z,97.80
2022-11-05T12:07:27.396Z,99.20
2022-11-05T12:10:14.987Z,98.90
2022-11-05T12:12:41.559Z,99.30
2022-11-05T12:15:38.809Z,98.50
2022-11-05T12:18:13.119Z,99.70
2022-11-05T12:21:04.451Z,99.60
2022-11-05T12:24:02.322Z,99.10
2022-11-05T12:26:56.017Z,99.90
2022-11-05T12:29:34.435Z,99.50
2022-11-05T12:32:39.823Z,97.60
2022-11-05T12:35:47.050Z,98.30
2022-11-05T12:38:45.093Z,99.50
2022-11-05T12:41:18.239Z,99.90
2022-11-05T12:43:53.729Z,95.80
2022-11-05T12:46:36.024Z,95.00
2022-11-05T12:49:25.810Z,96.00
2022-11-05T12:52:21.747Z,97.10
2022-11-05T12:54:58.430Z,98.10
2022-11-05T12:57:27.748Z,97.60
2022-11-05T13:00:08.465Z,97.00
2022-11-05T13:03:15.482Z,95.80
2022-11-05T13:05:48.185Z,96.00
2022-11-05T13:08:42.993Z,96.80
2022-11-05T13:11:25.948Z,97.20
2022-11-05T13:14:09.909Z,97.80
2022-11-05T13:16:40.517Z,98.00
2022-11-05T13:19:19.086Z,97.80
2022-11-05T13:21:52.168Z,97.60
2022-11-05T13:24:26.694Z,97.80
2022-11-05T13:27:16.217Z,98.00
2022-11-05T13:29:49.131Z,98.00
2022-11-05T13:32:29.079Z,97.80
2022-11-05T13:34:56.844Z,97.00
2022-11-05T13:37:46.361Z,97.00
2022-11-05T13:40:18.770Z,97.10
2022-11-05T13:42:56.616Z,96.70
2022-11-05T13:45:45.168Z,94.80
2022-11-05T13:48:47.985Z,95.30
2022-11-05T13:51:23.562Z,94.90
2022-11-05T13:54:37.118Z,95.10
2022-11-05T13:57:15.649Z,95.90
2022-11-05T14:00:12.575Z,96.40
2022-11-05T14:02:43.894Z,96.40
2022-11-05T14:05:25.370Z,96.10
2022-11-05T14:07:53.292Z,95.70
2022-11-05T14:10:42.875Z,95.70
2022-11-05T14:13:32.507Z,96.50
2022-11-05T14:16:06.982Z,95.90
2022-11-05T14:18:53.821Z,96.30
2022-11-05T14:21:26.464Z,96.60
2022-11-05T14:24:17.785Z,96.90
2022-11-05T14:26:44.421Z,97.10
2022-11-05T14:29:10.983Z,97.60
2022-11-05T14:32:09.346Z,97.00
2022-11-05T14:35:01.866Z,97.90
2022-11-05T14:37:32.079Z,97.20
2022-11-05T14:40:25.947Z,96.70
2022-11-05T14:42:55.487Z,97.30
2022-11-05T14:45:40.557Z,97.90
2022-11-05T14:48:49.692Z,97.00
2022-11-05T14:51:38.260Z,97.00
2022-11-05T14:54:15.006Z,96.00
2022-11-05T14:56:43.350Z,96.10
2022-11-05T14:59:25.006Z,96.00
2022-11-05T15:01:57.358Z,97.40
2022-11-05T15:04:29.801Z,97.60
2022-11-05T15:07:02.705Z,97.50
2022-11-05T15:09:54.564Z,97.80
2022-11-05T15:12:38.486Z,97.00
2022-11-05T15:15:22.024Z,97.50
2022-11-05T15:18:02.559Z,97.50
2022-11-05T15:20:40.711Z,97.70
2022-11-05T15:23:12.683Z,97.60
2022-11-05T15:26:01.292Z,97.90
2022-11-05T15:28:36.877Z,98.50
2022-11-05T15:31:19.287Z,98.60
2022-11-05T15:33:47.725Z,98.40
2022-11-05T15:36:27.202Z,98.20
2022-11-05T15:39:22.883Z,98.30
2022-11-05T15:41:41.410Z,98.70
2022-11-05T15:44:28.069Z,99.10
2022-11-05T15:47:30.087Z,99.00
2022-11-05T15:49:59.520Z,99.50
2022-11-05T15:52:34.638Z,99.60
2022-11-05T15:55:17.726Z,99.60
2022-11-05T15:58:04.778Z,99.90
2022-11-05T16:00:36.403Z,99.90
2022-11-05T16:03:05.162Z,99.90
2022-11-05T16:05:35.120Z,99.90
2022-11-05T16:08:04.222Z,99.90
2022-11-05T16:10:36.640Z,99.90
2022-11-05T16:13:33.191Z,99.90
2022-11-05T16:16:05.470Z,99.90
2022-11-05T16:18:38.574Z,99.90
2022-11-05T16:21:08.136Z,99.90
2022-11-05T16:23:57.998Z,99.90
2022-11-05T16:29:38.569Z,99.90
2022-11-05T16:32:30.602Z,99.90
2022-11-05T16:35:01.344Z,99.90
2022-11-05T16:37:35.331Z,99.90
2022-11-05T16:40:03.561Z,99.90
2022-11-05T16:42:33.209Z,99.90
2022-11-05T16:44:59.919Z,99.90
2022-11-05T16:47:26.562Z,99.90
2022-11-05T16:49:53.182Z,99.90
2022-11-05T16:52:19.863Z,99.90
2022-11-05T16:54:46.622Z,99.90
2022-11-05T16:57:29.119Z,99.90
2022-11-05T16:59:57.050Z,99.90
2022-11-05T17:02:23.890Z,99.90
2022-11-05T17:04:50.769Z,99.90
2022-11-05T17:07:17.924Z,99.90
2022-11-05T17:09:44.541Z,99.90
2022-11-05T17:12:11.969Z,99.90
2022-11-05T17:14:38.757Z,99.90
2022-11-05T17:17:06.125Z,99.90
2022-11-05T17:19:33.334Z,99.90
2022-11-05T17:21:59.999Z,99.90
2022-11-05T17:24:26.634Z,99.90
2022-11-05T17:26:53.271Z,99.90
2022-11-05T17:29:19.975Z,99.90
2022-11-05T17:31:46.634Z,99.90
2022-11-05T17:34:13.245Z,99.90
2022-11-05T17:36:39.943Z,99.90
2022-11-05T17:39:06.600Z,99.90
2022-11-05T17:41:33.234Z,99.90
2022-11-05T17:44:00.531Z,99.90
2022-11-05T17:46:27.890Z,99.90
2022-11-05T17:48:54.517Z,99.90
2022-11-05T17:51:21.826Z,99.90
2022-11-05T17:53:49.223Z,99.90
2022-11-05T17:56:27.638Z,99.90
2022-11-05T17:58:55.999Z,99.90
2022-11-05T18:01:31.308Z,99.90
2022-11-05T18:04:00.359Z,99.90
2022-11-05T18:06:31.932Z,99.90
2022-11-05T18:08:58.697Z,99.90
2022-11-05T18:11:25.353Z,99.90
2022-11-05T18:13:51.969Z,99.90
2022-11-05T18:16:18.882Z,99.90
2022-11-05T18:18:45.500Z,99.90
2022-11-05T18:21:12.437Z,99.90
2022-11-05T18:23:39.083Z,99.90
2022-11-05T18:26:14.369Z,99.90
2022-11-05T18:28:41.959Z,99.90
2022-11-05T18:31:17.847Z,99.90
2022-11-05T18:33:45.278Z,99.90
2022-11-05T18:36:19.640Z,99.90
2022-11-05T18:38:46.990Z,99.90
2022-11-05T18:41:14.070Z,99.90
2022-11-05T18:43:40.992Z,99.90
2022-11-05T18:46:08.282Z,99.90
2022-11-05T18:48:35.533Z,99.90
2022-11-05T18:51:11.745Z,99.90
2022-11-05T18:53:39.394Z,99.90
2022-11-05T18:56:17.678Z,99.90
2022-11-05T18:58:44.917Z,99.90
2022-11-05T19:01:21.838Z,99.90
2022-11-05T19:03:50.313Z,99.90
2022-11-05T19:06:17.818Z,99.90
2022-11-05T19:08:44.689Z,99.90
2022-11-05T19:11:17.163Z,99.90
2022-11-05T19:13:44.019Z,99.90
2022-11-05T19:16:16.993Z,99.90
2022-11-05T19:18:44.371Z,99.90
2022-11-05T19:21:17.261Z,99.90
2022-11-05T19:23:43.935Z,99.90
2022-11-05T19:26:28.172Z,99.90
2022-11-05T19:28:56.494Z,99.90
2022-11-05T19:31:23.565Z,99.90
2022-11-05T19:33:51.967Z,99.90
2022-11-05T19:36:20.578Z,99.90
2022-11-05T19:38:52.236Z,99.90
2022-11-05T19:41:19.308Z,99.90
2022-11-05T19:43:46.580Z,99.90
2022-11-05T19:46:19.289Z,99.90
2022-11-05T19:48:46.827Z,99.90
2022-11-05T19:51:17.106Z,99.90
2022-11-05T19:53:44.410Z,99.90
2022-11-05T19:56:14.562Z,99.90
2022-11-05T19:58:41.224Z,99.90
2022-11-05T20:01:09.386Z,99.90
2022-11-05T20:03:37.661Z,99.90
2022-11-05T20:06:16.501Z,99.90
2022-11-05T20:09:07.204Z,99.90
2022-11-05T20:11:31.611Z,99.90
2022-11-05T20:13:58.301Z,99.90
2022-11-05T20:16:27.536Z,99.90
2022-11-05T20:18:54.494Z,99.90
2022-11-05T20:21:21.198Z,99.90
2022-11-05T20:23:48.362Z,99.90
2022-11-05T20:26:15.665Z,99.90
2022-11-05T20:28:43.607Z,99.90
2022-11-05T20:31:12.702Z,99.90
2022-11-05T20:33:40.691Z,99.90
2022-11-05T20:36:15.632Z,99.90
2022-11-05T20:38:42.786Z,99.90
2022-11-05T20:41:12.261Z,99.90
2022-11-05T20:43:42.871Z,99.90
2022-11-05T20:46:15.011Z,99.90
2022-11-05T20:48:42.547Z,99.90
2022-11-05T20:51:14.107Z,99.90
2022-11-05T20:53:41.343Z,99.90
2022-11-05T20:56:09.259Z,99.90
2022-11-05T20:58:40.161Z,99.90
2022-11-05T21:01:07.581Z,99.90
2022-11-05T21:03:34.576Z,99.90
2022-11-05T21:06:04.392Z,99.90
2022-11-05T21:08:31.623Z,99.90
2022-11-05T21:10:58.953Z,99.90
2022-11-05T21:13:26.527Z,99.90
2022-11-05T21:15:55.965Z,99.90
2022-11-05T21:18:24.751Z,99.90
2022-11-05T21:20:51.687Z,99.90
2022-11-05T21:23:18.545Z,99.90
2022-11-05T21:25:45.230Z,99.90
2022-11-05T21:28:13.334Z,99.90
2022-11-05T21:30:41.971Z,99.90
2022-11-05T21:33:09.138Z,99.90
2022-11-05T21:35:43.954Z,99.90
2022-11-05T21:38:12.281Z,99.90
2022-11-05T21:40:39.797Z,99.90
2022-11-05T21:43:07.144Z,99.90
2022-11-05T21:45:34.083Z,99.90
2022-11-05T21:48:00.926Z,99.90
2022-11-05T21:50:45.982Z,99.90
2022-11-05T21:53:33.382Z,99.90
2022-11-05T21:56:18.906Z,99.90
2022-11-05T21:59:04.443Z,99.90
2022-11-05T22:01:31.596Z,99.90
2022-11-05T22:04:02.870Z,99.90
2022-11-05T22:06:32.960Z,99.90
2022-11-05T22:08:59.867Z,99.90
2022-11-05T22:11:26.515Z,99.90
2022-11-05T22:13:53.686Z,99.90
2022-11-05T22:16:20.542Z,99.90
2022-11-05T22:18:47.168Z,99.90
2022-11-05T22:21:19.603Z,99.90
2022-11-05T22:23:46.242Z,99.90
2022-11-05T22:26:13.177Z,99.90
2022-11-05T22:28:39.799Z,99.90
2022-11-05T22:31:16.692Z,99.90
2022-11-05T22:33:44.091Z,99.90
2022-11-05T22:36:11.855Z,99.90
2022-11-05T22:38:39.179Z,99.90
2022-11-05T22:41:11.303Z,99.90
2022-11-05T22:43:38.242Z,99.90
2022-11-05T22:46:06.975Z,99.90
2022-11-05T22:48:35.528Z,99.90
2022-11-05T22:51:06.987Z,99.90
2022-11-05T22:53:35.177Z,99.90
2022-11-05T22:56:06.275Z,99.90
2022-11-05T22:58:33.399Z,99.90
2022-11-05T23:01:00.395Z,99.90
2022-11-05T23:03:28.652Z,99.90
2022-11-05T23:06:02.975Z,99.90
2022-11-05T23:08:48.790Z,99.90
2022-11-05T23:11:35.645Z,99.90
2022-11-05T23:14:02.877Z,99.90
2022-11-05T23:16:48.230Z,99.90
2022-11-05T23:19:33.690Z,99.90
2022-11-05T23:22:19.236Z,99.90
2022-11-05T23:24:47.474Z,99.90
2022-11-05T23:27:14.546Z,99.90
2022-11-05T23:29:41.304Z,99.90
2022-11-05T23:32:27.093Z,99.90
2022-11-05T23:34:56.438Z,99.90
2022-11-05T23:37:57.794Z,99.90
2022-11-05T23:40:28.102Z,99.90
2022-11-05T23:43:13.621Z,99.90
2022-11-05T23:45:47.961Z,99.90
2022-11-05T23:48:33.958Z,99.90
2022-11-05T23:51:07.180Z,99.90
2022-11-05T23:53:37.947Z,99.90
2022-11-05T23:56:10.375Z,99.90
2022-11-05T23:58:38.613Z,99.90
